Time;durP1;ratioP1;P1;durP2;ratioP2;P2;SDS_P1;SDS_P2;PMS_P1;PMS_P2;Temp;Humidity;BMP_temperature;BMP_pressure;BME280_temperature;BME280_humidity;BME280_pressure;Samples;Min_cycle;Max_cycle;Signal;HPM_P1;HPM_P2
2023/05/08 00:00:16;;;;;;;16.40;12.17;;;;;;;-145.18;100.00;46658.44;4953871;29;20039;-72
2023/05/08 00:02:42;;;;;;;16.37;12.20;;;;;;;-145.18;100.00;46666.25;4953528;29;20086;-72
2023/05/08 00:05:07;;;;;;;15.47;11.40;;;;;;;-145.18;100.00;46666.25;4953433;28;20066;-72
2023/05/08 00:07:34;;;;;;;12.67;10.83;;;;;;;-145.18;100.00;46666.25;4952725;28;20027;-72
2023/05/08 00:10:00;;;;;;;12.60;10.60;;;;;;;-145.18;100.00;46658.44;4953536;29;20085;-72
2023/05/08 00:12:25;;;;;;;14.57;10.77;;;;;;;-145.18;100.00;46660.41;4953184;29;20063;-72
2023/05/08 00:14:50;;;;;;;14.43;11.20;;;;;;;-145.18;100.00;46658.44;4953463;29;20049;-71
2023/05/08 00:17:16;;;;;;;13.37;11.20;;;;;;;-145.18;100.00;46658.44;4952907;29;20035;-72
2023/05/08 00:19:41;;;;;;;14.93;11.67;;;;;;;-145.18;100.00;46658.44;4953285;29;20090;-72
2023/05/08 00:22:06;;;;;;;15.20;12.10;;;;;;;-145.18;100.00;46662.34;4953053;29;20404;-71
2023/05/08 00:24:32;;;;;;;16.70;12.90;;;;;;;-145.18;100.00;46660.41;4953036;29;20043;-71
2023/05/08 00:26:57;;;;;;;17.50;13.13;;;;;;;-145.18;100.00;46656.50;4952931;29;20086;-72
2023/05/08 00:29:23;;;;;;;20.23;13.07;;;;;;;-145.18;100.00;46666.25;4952866;29;20439;-71
2023/05/08 00:31:48;;;;;;;17.87;12.83;;;;;;;-145.18;100.00;46660.41;4952969;29;20114;-72
2023/05/08 00:34:13;;;;;;;16.80;13.47;;;;;;;-145.18;100.00;46666.25;4953047;29;20051;-72
2023/05/08 00:36:39;;;;;;;18.77;12.33;;;;;;;-145.18;100.00;46664.31;4952746;29;20500;-71
2023/05/08 00:39:04;;;;;;;19.20;12.47;;;;;;;-145.18;100.00;46658.44;4952975;29;20089;-72
2023/05/08 00:41:30;;;;;;;17.20;13.27;;;;;;;-145.18;100.00;46660.41;4952578;29;20078;-71
2023/05/08 00:43:55;;;;;;;16.13;12.60;;;;;;;-145.18;100.00;46662.34;4952847;29;20056;-71
2023/05/08 00:46:21;;;;;;;14.40;11.77;;;;;;;-145.18;100.00;46654.53;4952549;29;20078;-72
2023/05/08 00:48:46;;;;;;;15.53;12.20;;;;;;;-145.18;100.00;46656.50;4952924;29;20413;-72
2023/05/08 00:51:12;;;;;;;15.33;11.67;;;;;;;-145.18;100.00;46658.44;4952642;29;20042;-71
2023/05/08 00:53:41;;;;;;;15.77;12.50;;;;;;;-145.18;100.00;46666.25;4952102;29;20401;-71
2023/05/08 00:56:10;;;;;;;20.50;12.77;;;;;;;-145.18;100.00;46662.34;4933876;29;20042;-71
2023/05/08 00:58:37;;;;;;;15.13;11.93;;;;;;;-145.18;100.00;46660.41;4933204;29;20028;-71
2023/05/08 01:01:03;;;;;;;14.27;11.47;;;;;;;-145.18;100.00;46660.41;4940670;29;20447;-71
2023/05/08 01:03:31;;;;;;;23.13;13.50;;;;;;;-145.18;100.00;46660.41;4952034;29;20047;-70
2023/05/08 01:05:56;;;;;;;17.90;13.07;;;;;;;-145.18;100.00;46656.50;4935702;29;20042;-71
2023/05/08 01:08:22;;;;;;;18.37;13.23;;;;;;;-145.18;100.00;46660.41;4952175;29;20031;-71
2023/05/08 01:11:09;;;;;;;16.13;12.20;;;;;;;-145.18;100.00;46660.41;4952546;29;20046;-71
2023/05/08 01:13:53;;;;;;;42.80;11.40;;;;;;;-145.18;100.00;46660.41;4952285;29;20063;-71
2023/05/08 01:16:42;;;;;;;12.63;10.30;;;;;;;-145.18;100.00;46660.41;4951777;29;20045;-71
2023/05/08 01:19:31;;;;;;;13.07;10.13;;;;;;;-145.18;100.00;46658.44;4952139;28;20097;-71
2023/05/08 01:22:06;;;;;;;12.77;9.60;;;;;;;-145.18;100.00;46654.53;4951975;29;20135;-71
2023/05/08 01:24:34;;;;;;;15.47;11.37;;;;;;;-145.18;100.00;46652.59;4952173;29;20110;-71
2023/05/08 01:27:39;;;;;;;14.60;10.97;;;;;;;-145.18;100.00;46658.44;4951740;29;20416;-71
2023/05/08 01:30:20;;;;;;;15.37;11.13;;;;;;;-145.18;100.00;46652.59;4952350;29;20067;-71
2023/05/08 01:32:58;;;;;;;19.37;12.90;;;;;;;-145.18;100.00;46652.59;4952257;29;20036;-71
2023/05/08 01:35:30;;;;;;;16.23;11.47;;;;;;;-145.18;100.00;46652.59;4952125;29;20035;-71
2023/05/08 01:38:18;;;;;;;16.03;11.60;;;;;;;-145.18;100.00;46650.63;4951824;29;20039;-72
2023/05/08 01:40:51;;;;;;;19.23;13.30;;;;;;;-145.18;100.00;46650.63;4951930;29;20433;-71
2023/05/08 01:43:37;;;;;;;11.13;9.10;;;;;;;-145.18;100.00;46654.53;4951893;29;20039;-72
2023/05/08 01:46:12;;;;;;;8.50;7.53;;;;;;;-145.18;100.00;46646.72;4933081;29;20044;-72
2023/05/08 01:48:48;;;;;;;10.27;7.40;;;;;;;-145.18;100.00;46650.63;4940206;29;20082;-72
2023/05/08 01:51:21;;;;;;;9.70;8.40;;;;;;;-145.18;100.00;46650.63;4952178;29;20031;-71
2023/05/08 01:53:51;;;;;;;8.03;6.70;;;;;;;-145.18;100.00;46652.59;4951953;29;20034;-72
2023/05/08 01:56:21;;;;;;;7.63;6.83;;;;;;;-145.18;100.00;46654.53;4951893;29;20559;-72
2023/05/08 01:58:48;;;;;;;8.97;7.43;;;;;;;-145.18;100.00;46648.69;4951806;29;20045;-71
2023/05/08 02:03:50;;;;;;;10.35;8.25;;;;;;;-145.18;100.00;46650.63;4790289;23;20042;-72
2023/05/08 02:06:19;;;;;;;9.13;7.93;;;;;;;-145.18;100.00;46656.50;4960709;28;20062;-72
2023/05/08 02:08:46;;;;;;;9.87;8.03;;;;;;;-145.18;100.00;46652.59;4951724;28;20027;-72
2023/05/08 02:11:13;;;;;;;8.57;7.60;;;;;;;-145.18;100.00;46654.53;4970834;28;20042;-72
2023/05/08 02:13:39;;;;;;;8.37;7.20;;;;;;;-145.18;100.00;46650.63;4971001;28;20027;-72
2023/05/08 02:16:07;;;;;;;9.83;6.77;;;;;;;-145.18;100.00;46656.50;4971062;28;20073;-72
2023/05/08 02:18:34;;;;;;;11.00;6.70;;;;;;;-145.18;100.00;46652.59;4970969;28;20391;-72
2023/05/08 02:21:02;;;;;;;12.23;5.63;;;;;;;-145.18;100.00;46650.63;4953370;28;20037;-72
2023/05/08 02:23:30;;;;;;;7.33;5.27;;;;;;;-145.18;100.00;46660.41;4951860;28;20110;-72
2023/05/08 02:25:56;;;;;;;7.93;6.30;;;;;;;-145.18;100.00;46658.44;4963503;28;20043;-73
2023/05/08 02:28:23;;;;;;;29.03;4.83;;;;;;;-145.18;100.00;46658.44;4970732;28;20113;-72
2023/05/08 02:30:50;;;;;;;7.17;5.60;;;;;;;-145.18;100.00;46654.53;4955903;28;20043;-72
2023/05/08 02:33:17;;;;;;;14.57;5.67;;;;;;;-145.18;100.00;46666.25;4955420;28;20042;-72
2023/05/08 02:35:45;;;;;;;43.20;5.30;;;;;;;-145.18;100.00;46658.44;4955663;28;20035;-73
2023/05/08 02:38:13;;;;;;;31.67;5.30;;;;;;;-145.18;100.00;46654.53;4955123;28;20050;-72
2023/05/08 02:40:44;;;;;;;27.27;8.27;;;;;;;-145.18;100.00;46662.34;4969671;28;20507;-73
2023/05/08 02:43:10;;;;;;;19.60;7.13;;;;;;;-145.18;100.00;46658.44;4955359;28;20039;-72
2023/05/08 02:45:42;;;;;;;22.73;7.30;;;;;;;-145.18;100.00;46652.59;4966199;28;20484;-72
2023/05/08 02:48:14;;;;;;;14.93;4.90;;;;;;;-145.18;100.00;46660.41;4974054;28;20038;-72
2023/05/08 02:50:54;;;;;;;31.10;4.40;;;;;;;-145.18;100.00;46656.50;4973954;28;20038;-72
2023/05/08 02:53:31;;;;;;;45.30;6.57;;;;;;;-145.18;100.00;46658.44;4974462;28;20388;-72
2023/05/08 02:56:08;;;;;;;22.43;7.17;;;;;;;-145.18;100.00;46652.59;4974396;28;20479;-72
2023/05/08 02:58:47;;;;;;;18.13;6.53;;;;;;;-145.18;100.00;46658.44;4963187;28;20046;-72
2023/05/08 03:01:24;;;;;;;11.87;7.83;;;;;;;-145.18;100.00;46656.50;4954850;28;20071;-72
2023/05/08 03:04:03;;;;;;;8.70;6.90;;;;;;;-145.18;100.00;46656.50;4954522;28;20043;-73
2023/05/08 03:06:35;;;;;;;9.77;6.13;;;;;;;-145.18;100.00;46654.53;4955040;28;20035;-72
2023/05/08 03:09:02;;;;;;;7.00;6.30;;;;;;;-145.18;100.00;46652.59;4954404;28;20027;-72
2023/05/08 03:11:41;;;;;;;9.37;7.00;;;;;;;-145.18;100.00;46654.53;4954941;28;20035;-73
2023/05/08 03:14:11;;;;;;;6.73;5.30;;;;;;;-145.18;100.00;46652.59;4954358;28;20094;-73
2023/05/08 03:16:40;;;;;;;36.67;9.10;;;;;;;-145.18;100.00;46656.50;4954648;28;20122;-72
2023/05/08 03:19:13;;;;;;;10.50;6.80;;;;;;;-145.18;100.00;46654.53;4954161;28;20039;-72
2023/05/08 03:21:42;;;;;;;9.47;7.60;;;;;;;-145.18;100.00;46654.53;4954839;28;20066;-72
2023/05/08 03:24:08;;;;;;;9.13;7.07;;;;;;;-145.18;100.00;46654.53;4954108;28;20237;-72
2023/05/08 03:26:35;;;;;;;10.17;7.33;;;;;;;-145.18;100.00;46654.53;4954677;28;20495;-73
2023/05/08 03:29:01;;;;;;;9.10;7.70;;;;;;;-145.18;100.00;46654.53;4954033;28;20040;-73
2023/05/08 03:31:27;;;;;;;9.63;7.77;;;;;;;-145.18;100.00;46660.41;4953263;29;20047;-73
2023/05/08 03:33:54;;;;;;;12.13;8.67;;;;;;;-145.18;100.00;46656.50;4952808;29;20499;-73
2023/05/08 03:36:21;;;;;;;17.90;13.73;;;;;;;-145.18;100.00;46660.41;4954234;28;20035;-72
2023/05/08 03:38:47;;;;;;;18.30;13.47;;;;;;;-145.18;100.00;46656.50;4954028;28;20035;-72
2023/05/08 03:41:13;;;;;;;11.53;9.23;;;;;;;-145.18;100.00;46650.63;4953666;28;20503;-73
2023/05/08 03:43:40;;;;;;;14.30;9.57;;;;;;;-145.18;100.00;46656.50;4954306;28;20039;-73
2023/05/08 03:46:06;;;;;;;12.63;8.07;;;;;;;-145.18;100.00;46652.59;4954039;28;20047;-73
2023/05/08 03:48:33;;;;;;;13.60;9.43;;;;;;;-145.18;100.00;46654.53;4953754;28;20035;-73
2023/05/08 03:51:02;;;;;;;20.47;14.73;;;;;;;-145.18;100.00;46652.59;4954031;28;20039;-73
2023/05/08 03:53:32;;;;;;;17.40;13.43;;;;;;;-145.18;100.00;46654.53;4953973;28;20031;-73
2023/05/08 03:55:58;;;;;;;17.00;12.87;;;;;;;-145.18;100.00;46652.59;4953742;28;20050;-72
2023/05/08 03:58:47;;;;;;;14.17;10.73;;;;;;;-145.18;100.00;46650.63;4955857;28;20042;-73
2023/05/08 04:01:23;;;;;;;14.00;11.37;;;;;;;-145.18;100.00;46652.59;4944488;28;20063;-73
2023/05/08 04:04:15;;;;;;;14.43;11.15;;;;;;;-145.18;100.00;46652.59;4945727;28;20507;-73
2023/05/08 04:06:45;;;;;;;17.80;12.47;;;;;;;-145.18;100.00;46652.59;4939477;29;20043;-73
2023/05/08 04:09:25;;;;;;;18.93;14.57;;;;;;;-145.18;100.00;46652.59;4949726;28;20468;-73
2023/05/08 04:11:57;;;;;;;15.23;11.33;;;;;;;-145.18;100.00;46650.63;4946497;28;20480;-73
2023/05/08 04:14:26;;;;;;;15.83;12.07;;;;;;;-145.18;100.00;46650.63;4944923;29;20483;-72
2023/05/08 04:16:59;;;;;;;15.90;12.80;;;;;;;-145.18;100.00;46652.59;4938276;28;20039;-73
2023/05/08 04:19:28;;;;;;;15.50;12.00;;;;;;;-145.18;100.00;46650.63;4947287;29;20043;-73
2023/05/08 04:21:57;;;;;;;14.17;10.87;;;;;;;-145.18;100.00;46650.63;4953506;28;20046;-73
2023/05/08 04:24:26;;;;;;;12.93;10.27;;;;;;;-145.18;100.00;46650.63;4951998;29;20027;-73
2023/05/08 04:26:52;;;;;;;13.23;10.77;;;;;;;-145.18;100.00;46650.63;4952198;28;20046;-73
2023/05/08 04:29:19;;;;;;;16.43;11.67;;;;;;;-145.18;100.00;46656.50;4952918;28;20547;-72
2023/05/08 04:31:44;;;;;;;14.57;11.07;;;;;;;-145.18;100.00;46648.69;4952505;28;20407;-73
2023/05/08 04:34:11;;;;;;;16.97;11.93;;;;;;;-145.18;100.00;46654.53;4953035;28;20039;-73
2023/05/08 04:36:37;;;;;;;16.80;12.03;;;;;;;-145.18;100.00;46654.53;4953308;28;20098;-73
2023/05/08 04:39:02;;;;;;;17.37;13.77;;;;;;;-145.18;100.00;46658.44;4951560;29;20035;-73
2023/05/08 04:41:28;;;;;;;18.53;14.30;;;;;;;-145.18;100.00;46652.59;4952156;29;20035;-74
2023/05/08 04:43:54;;;;;;;19.43;14.57;;;;;;;-145.18;100.00;46652.59;4947951;28;20074;-73
2023/05/08 04:46:19;;;;;;;24.83;16.87;;;;;;;-145.18;100.00;46656.50;4949966;29;20477;-73
2023/05/08 04:48:45;;;;;;;25.93;17.87;;;;;;;-145.18;100.00;46656.50;4952621;28;20102;-73
2023/05/08 04:51:10;;;;;;;28.40;18.43;;;;;;;-145.18;100.00;46658.44;4951138;29;20054;-73
2023/05/08 04:53:36;;;;;;;28.73;19.77;;;;;;;-145.18;100.00;46654.53;4950284;28;20031;-73
2023/05/08 04:56:01;;;;;;;27.10;18.77;;;;;;;-145.18;100.00;46656.50;4951117;28;20508;-73
2023/05/08 04:58:27;;;;;;;28.83;20.60;;;;;;;-145.18;100.00;46652.59;4950891;29;20039;-72
2023/05/08 05:00:53;;;;;;;27.57;18.30;;;;;;;-145.18;100.00;46656.50;4950844;28;20058;-73
2023/05/08 05:03:18;;;;;;;29.43;20.07;;;;;;;-145.18;100.00;46652.59;4950617;28;20051;-73
2023/05/08 05:05:44;;;;;;;28.60;20.13;;;;;;;-145.18;100.00;46658.44;4951404;28;20412;-73
2023/05/08 05:08:09;;;;;;;27.67;18.77;;;;;;;-145.18;100.00;46658.44;4951086;28;20048;-73
2023/05/08 05:10:36;;;;;;;24.73;18.63;;;;;;;-145.18;100.00;46658.44;4951134;28;20282;-72
2023/05/08 05:13:02;;;;;;;26.50;19.10;;;;;;;-145.18;100.00;46654.53;4950743;28;20567;-73
2023/05/08 05:15:27;;;;;;;29.40;20.13;;;;;;;-145.18;100.00;46658.44;4952208;28;20031;-73
2023/05/08 05:17:52;;;;;;;27.70;18.13;;;;;;;-145.18;100.00;46650.63;4951748;29;20442;-73
2023/05/08 05:20:18;;;;;;;32.50;20.90;;;;;;;-145.18;100.00;46654.53;4952034;29;20043;-73
2023/05/08 05:22:43;;;;;;;32.83;21.23;;;;;;;-145.18;100.00;46656.50;4944718;28;20035;-73
2023/05/08 05:25:09;;;;;;;33.03;22.87;;;;;;;-145.18;100.00;46654.53;4946960;28;20043;-73
2023/05/08 05:27:35;;;;;;;38.57;23.03;;;;;;;-145.18;100.00;46654.53;4952066;29;20046;-73
2023/05/08 05:30:01;;;;;;;37.80;23.13;;;;;;;-145.18;100.00;46652.59;4951840;28;20382;-73
2023/05/08 05:32:26;;;;;;;35.80;21.43;;;;;;;-145.18;100.00;46654.53;4952015;29;20106;-73
2023/05/08 05:34:52;;;;;;;39.93;25.00;;;;;;;-145.18;100.00;46654.53;4951848;29;20081;-73
2023/05/08 05:37:18;;;;;;;40.30;25.03;;;;;;;-145.18;100.00;46652.59;4952401;28;20054;-73
2023/05/08 05:39:43;;;;;;;45.50;26.23;;;;;;;-145.18;100.00;46660.41;4952357;28;20509;-72
2023/05/08 05:42:09;;;;;;;49.67;28.50;;;;;;;-145.18;100.00;46654.53;4952158;29;20135;-73
2023/05/08 05:44:34;;;;;;;49.80;28.83;;;;;;;-145.18;100.00;46658.44;4952396;28;20039;-73
2023/05/08 05:46:59;;;;;;;56.47;28.77;;;;;;;-145.18;100.00;46660.41;4952233;28;20039;-73
2023/05/08 05:49:25;;;;;;;58.80;30.67;;;;;;;-145.18;100.00;46652.59;4952182;28;20090;-73
2023/05/08 05:51:50;;;;;;;60.70;32.20;;;;;;;-145.18;100.00;46648.69;4952118;28;20512;-73
2023/05/08 05:54:16;;;;;;;64.33;32.53;;;;;;;-145.18;100.00;46652.59;4952024;29;20046;-73
2023/05/08 05:56:41;;;;;;;70.27;35.27;;;;;;;-145.18;100.00;46656.50;4952361;28;20027;-73
2023/05/08 05:59:06;;;;;;;75.03;36.07;;;;;;;-145.18;100.00;46654.53;4951766;28;20365;-73
2023/05/08 06:01:32;;;;;;;70.70;36.90;;;;;;;-145.18;100.00;46652.59;4952361;29;20365;-73
2023/05/08 06:03:57;;;;;;;74.83;35.97;;;;;;;-145.18;100.00;46648.69;4951434;28;20086;-73
2023/05/08 06:06:23;;;;;;;69.90;33.90;;;;;;;-145.18;100.00;46652.59;4950373;28;20028;-74
2023/05/08 06:08:49;;;;;;;84.83;37.83;;;;;;;-145.18;100.00;46654.53;4945211;29;20457;-73
2023/05/08 06:11:14;;;;;;;85.37;39.13;;;;;;;-145.18;100.00;46652.59;4947708;29;20039;-73
2023/05/08 06:13:40;;;;;;;82.97;38.90;;;;;;;-145.18;100.00;46650.63;4946560;29;20040;-73
2023/05/08 06:16:06;;;;;;;79.50;39.43;;;;;;;-145.18;100.00;46654.53;4944613;28;20027;-73
2023/05/08 06:18:32;;;;;;;89.57;42.57;;;;;;;-145.18;100.00;46652.59;4954897;28;20093;-73
2023/05/08 06:20:57;;;;;;;108.17;47.40;;;;;;;-145.18;100.00;46650.63;4955086;28;20399;-73
2023/05/08 06:23:23;;;;;;;102.10;49.47;;;;;;;-145.18;100.00;46652.59;4955577;28;20552;-73
2023/05/08 06:25:48;;;;;;;108.57;48.93;;;;;;;-145.18;100.00;46652.59;4955790;28;20035;-73
2023/05/08 06:28:14;;;;;;;123.13;53.17;;;;;;;-145.18;100.00;46648.69;4955244;29;20031;-73
2023/05/08 06:30:39;;;;;;;119.10;53.93;;;;;;;-145.18;100.00;46648.69;4955099;28;20122;-74
2023/05/08 06:33:05;;;;;;;111.00;52.70;;;;;;;-145.18;100.00;46646.72;4951802;28;20172;-73
2023/05/08 06:35:30;;;;;;;112.87;54.63;;;;;;;-145.18;100.00;46642.81;4955606;28;20180;-73
2023/05/08 06:37:56;;;;;;;119.07;54.07;;;;;;;-145.18;100.00;46640.88;4949303;28;20081;-73
2023/05/08 06:40:22;;;;;;;117.90;51.40;;;;;;;-145.18;100.00;46644.78;4949538;28;20027;-73
2023/05/08 06:42:47;;;;;;;125.63;54.47;;;;;;;-145.18;100.00;46638.91;4944598;29;20059;-73
2023/05/08 06:45:13;;;;;;;118.97;54.63;;;;;;;-145.18;100.00;46638.91;4942067;29;20635;-73
2023/05/08 06:47:38;;;;;;;131.70;56.40;;;;;;;-145.18;100.00;46640.88;4951077;29;20035;-73
2023/05/08 06:50:04;;;;;;;120.63;54.33;;;;;;;-145.18;100.00;46644.78;4938693;29;20047;-73
2023/05/08 06:52:30;;;;;;;128.43;55.00;;;;;;;-145.18;100.00;46644.78;4948425;28;20111;-73
2023/05/08 06:54:55;;;;;;;135.50;55.30;;;;;;;-145.18;100.00;46646.72;4945325;29;20035;-73
2023/05/08 06:57:20;;;;;;;146.47;58.93;;;;;;;-145.18;100.00;46642.81;4940057;29;20031;-73
2023/05/08 06:59:46;;;;;;;144.10;57.17;;;;;;;-145.18;100.00;46640.88;4950858;29;20170;-73
2023/05/08 07:02:11;;;;;;;146.67;57.03;;;;;;;-145.18;100.00;46642.81;4938091;29;20019;-73
2023/05/08 07:04:36;;;;;;;143.83;57.73;;;;;;;-145.18;100.00;46646.72;4946888;28;20023;-73
2023/05/08 07:07:02;;;;;;;136.17;55.43;;;;;;;-145.18;100.00;46642.81;4946137;29;20037;-73
2023/05/08 07:09:28;;;;;;;136.13;55.73;;;;;;;-145.18;100.00;46640.88;4940023;29;20497;-73
2023/05/08 07:11:53;;;;;;;140.90;56.60;;;;;;;-145.18;100.00;46644.78;4944303;28;20044;-73
2023/05/08 07:14:18;;;;;;;149.70;60.97;;;;;;;-145.18;100.00;46642.81;4944959;29;20069;-73
2023/05/08 07:16:44;;;;;;;149.07;59.83;;;;;;;-145.18;100.00;46644.78;4941543;28;20039;-73
2023/05/08 07:19:09;;;;;;;136.10;54.07;;;;;;;-145.18;100.00;46638.91;4940742;29;20134;-73
2023/05/08 07:21:35;;;;;;;142.60;58.77;;;;;;;-145.18;100.00;46635.00;4942631;29;20070;-73
2023/05/08 07:24:01;;;;;;;140.40;57.47;;;;;;;-145.18;100.00;46636.94;4943890;29;20031;-73
2023/05/08 07:26:26;;;;;;;141.63;58.20;;;;;;;-145.18;100.00;46635.00;4944191;28;20373;-73
2023/05/08 07:28:53;;;;;;;137.37;59.80;;;;;;;-145.18;100.00;46635.00;4939646;29;20028;-73
2023/05/08 07:31:19;;;;;;;141.87;62.27;;;;;;;-145.18;100.00;46638.91;4941130;29;20067;-73
2023/05/08 07:33:45;;;;;;;143.10;62.23;;;;;;;-145.18;100.00;46636.94;4941465;29;20036;-73
2023/05/08 07:36:11;;;;;;;137.47;61.63;;;;;;;-145.18;100.00;46636.94;4952301;28;20030;-73
2023/05/08 07:38:36;;;;;;;133.70;60.77;;;;;;;-145.18;100.00;46640.88;4942605;28;20035;-73
2023/05/08 07:41:04;;;;;;;129.60;60.87;;;;;;;-145.18;100.00;46642.81;4941147;29;20036;-73
2023/05/08 07:43:29;;;;;;;130.63;60.33;;;;;;;-145.18;100.00;46644.78;4941175;29;20035;-73
2023/05/08 07:45:55;;;;;;;131.20;61.07;;;;;;;-145.18;100.00;46644.78;4943003;29;20047;-73
2023/05/08 07:48:20;;;;;;;121.13;58.33;;;;;;;-145.18;100.00;46648.69;4942906;28;20399;-73
2023/05/08 07:50:48;;;;;;;127.70;58.47;;;;;;;-145.18;100.00;46648.69;4944846;29;20039;-73
2023/05/08 07:53:13;;;;;;;121.63;58.10;;;;;;;-145.18;100.00;46656.50;4942837;28;20119;-73
2023/05/08 07:55:39;;;;;;;116.40;54.70;;;;;;;-145.18;100.00;46660.41;4950217;29;20126;-74
2023/05/08 07:58:04;;;;;;;109.13;52.20;;;;;;;-145.18;100.00;46666.25;4937539;29;20062;-73
2023/05/08 08:00:30;;;;;;;106.43;52.60;;;;;;;-145.18;100.00;46668.22;4945403;29;20048;-73
2023/05/08 08:02:56;;;;;;;106.37;52.27;;;;;;;-145.18;100.00;46672.13;4940967;29;20094;-74
2023/05/08 08:05:21;;;;;;;105.77;46.93;;;;;;;-145.18;100.00;46677.97;4952913;28;20039;-74
2023/05/08 08:07:47;;;;;;;101.70;46.50;;;;;;;-145.18;100.00;46679.94;4937534;29;20039;-74
2023/05/08 08:10:12;;;;;;;97.43;49.03;;;;;;;-145.18;100.00;46679.94;4949698;28;20039;-74
2023/05/08 08:12:38;;;;;;;87.20;42.57;;;;;;;-145.18;100.00;46683.84;4945791;28;20044;-74
2023/05/08 08:15:04;;;;;;;77.17;37.03;;;;;;;-145.18;100.00;46679.94;4952936;28;20448;-74
2023/05/08 08:17:29;;;;;;;77.87;35.87;;;;;;;-145.18;100.00;46689.69;4938649;28;20504;-73
2023/05/08 08:19:55;;;;;;;80.90;40.73;;;;;;;-145.18;100.00;46691.66;4949420;29;20055;-74
2023/05/08 08:22:20;;;;;;;75.47;41.70;;;;;;;-145.18;100.00;46695.56;4944058;29;20046;-73
2023/05/08 08:24:46;;;;;;;76.87;38.67;;;;;;;-145.18;100.00;46689.69;4951891;29;20594;-73
2023/05/08 08:27:12;;;;;;;74.63;34.57;;;;;;;-145.18;100.00;46693.59;4945627;28;20110;-73
2023/05/08 08:29:37;;;;;;;77.97;38.07;;;;;;;-145.18;100.00;46693.59;4952812;28;20110;-74
2023/05/08 08:32:03;;;;;;;66.93;36.40;;;;;;;-145.18;100.00;46674.06;4948868;28;20098;-73
2023/05/08 08:34:28;;;;;;;70.93;36.23;;;;;;;-145.18;100.00;46672.13;4949539;29;20070;-73
2023/05/08 08:36:53;;;;;;;76.83;36.03;;;;;;;-145.18;100.00;46656.50;4941703;29;20035;-73
2023/05/08 08:39:19;;;;;;;71.40;35.63;;;;;;;-145.18;100.00;46652.59;4947018;29;20566;-73
2023/05/08 08:41:44;;;;;;;70.00;35.30;;;;;;;-145.18;100.00;46644.78;4937046;28;20571;-73
2023/05/08 08:44:10;;;;;;;63.40;34.83;;;;;;;-145.18;100.00;46670.16;4948231;29;20028;-73
2023/05/08 08:46:42;;;;;;;63.30;34.63;;;;;;;-145.18;100.00;46676.03;4941106;29;20501;-73
2023/05/08 08:49:10;;;;;;;63.27;34.07;;;;;;;-145.18;100.00;46664.31;4943991;28;20031;-73
2023/05/08 08:51:49;;;;;;;64.70;33.73;;;;;;;-145.18;100.00;46601.78;4949043;29;20038;-73
2023/05/08 08:54:19;;;;;;;66.20;32.60;;;;;;;-145.18;100.00;46578.34;4937889;29;20035;-73
2023/05/08 08:56:47;;;;;;;60.93;33.30;;;;;;;-145.18;100.00;46576.41;4940779;29;20056;-73
2023/05/08 08:59:15;;;;;;;64.83;35.07;;;;;;;-145.18;100.00;46570.53;4939613;28;20039;-73
2023/05/08 09:01:43;;;;;;;58.43;33.77;;;;;;;-145.18;100.00;46568.59;4948919;29;20178;-73
2023/05/08 09:04:09;;;;;;;67.03;34.70;;;;;;;-145.18;100.00;46564.69;4936781;29;20052;-73
2023/05/08 09:06:36;;;;;;;60.17;34.13;;;;;;;-145.18;100.00;46570.53;4943539;29;20054;-73
2023/05/08 09:09:01;;;;;;;60.73;33.90;;;;;;;-145.18;100.00;46570.53;4943606;29;20049;-73
2023/05/08 09:11:27;;;;;;;65.97;35.00;;;;;;;-145.18;100.00;46572.50;4942246;28;20040;-73
2023/05/08 09:13:56;;;;;;;57.87;31.93;;;;;;;-145.18;100.00;46566.63;4948332;29;20571;-73
2023/05/08 09:16:22;;;;;;;61.07;34.20;;;;;;;-145.18;100.00;46566.63;4938780;29;20031;-73
2023/05/08 09:18:48;;;;;;;64.57;34.37;;;;;;;-145.18;100.00;46582.25;4942622;28;20041;-73
2023/05/08 09:21:14;;;;;;;63.83;34.63;;;;;;;-145.18;100.00;46578.34;4945347;29;20635;-73
2023/05/08 09:23:59;;;;;;;56.73;32.30;;;;;;;-145.18;100.00;46568.59;4935829;28;20040;-73
2023/05/08 09:26:39;;;;;;;56.90;32.97;;;;;;;-145.18;100.00;46580.31;4945948;28;20465;-73
2023/05/08 09:29:18;;;;;;;63.40;35.60;;;;;;;-145.18;100.00;46605.69;4943642;29;20046;-73
2023/05/08 09:31:46;;;;;;;60.67;33.70;;;;;;;-145.18;100.00;46656.50;4936088;28;20035;-73
2023/05/08 09:34:23;;;;;;;62.13;34.53;;;;;;;-145.18;100.00;46677.97;4946983;28;20492;-73
2023/05/08 09:36:49;;;;;;;60.90;33.53;;;;;;;-145.18;100.00;46679.94;4942049;29;20027;-73
2023/05/08 09:39:21;;;;;;;69.27;35.73;;;;;;;-145.18;100.00;46672.13;4938393;28;20042;-73
2023/05/08 09:42:03;;;;;;;61.93;32.43;;;;;;;-145.18;100.00;46670.16;4948424;29;20030;-73
2023/05/08 09:44:47;;;;;;;65.63;32.70;;;;;;;-145.18;100.00;46660.41;4938969;29;20066;-73
2023/05/08 09:47:14;;;;;;;62.47;33.70;;;;;;;-145.18;100.00;46664.31;4938897;28;20031;-73
2023/05/08 09:49:56;;;;;;;61.53;32.90;;;;;;;-145.18;100.00;46646.72;4937660;29;20098;-73
2023/05/08 09:52:22;;;;;;;68.60;32.67;;;;;;;-145.18;100.00;46617.41;4946268;28;20035;-73
2023/05/08 09:54:56;;;;;;;64.80;34.47;;;;;;;-145.18;100.00;46586.16;4933531;29;20044;-73
2023/05/08 09:57:21;;;;;;;66.80;34.13;;;;;;;-145.18;100.00;46588.13;4945664;29;20102;-73
2023/05/08 09:59:47;;;;;;;66.07;32.43;;;;;;;-145.18;100.00;46578.34;4934115;28;20094;-73
2023/05/08 10:02:15;;;;;;;62.53;34.60;;;;;;;-145.18;100.00;46564.69;4946080;28;20070;-72
2023/05/08 10:04:40;;;;;;;59.17;32.53;;;;;;;-145.18;100.00;46578.34;4939861;29;20035;-73
2023/05/08 10:07:06;;;;;;;60.80;32.47;;;;;;;-145.18;100.00;46572.50;4938445;28;20098;-73
2023/05/08 10:09:31;;;;;;;57.73;31.53;;;;;;;-145.18;100.00;46590.06;4946303;29;20035;-73
2023/05/08 10:11:56;;;;;;;62.73;33.70;;;;;;;-145.18;100.00;46586.16;4934622;29;20480;-72
2023/05/08 10:14:22;;;;;;;53.93;30.97;;;;;;;-145.18;100.00;46584.22;4938318;29;20113;-72
2023/05/08 10:16:51;;;;;;;52.27;30.47;;;;;;;-145.18;100.00;46590.06;4942228;28;20028;-72
2023/05/08 10:19:22;;;;;;;55.73;30.63;;;;;;;-145.18;100.00;46584.22;4944892;29;20042;-71
2023/05/08 10:21:52;;;;;;;56.33;31.47;;;;;;;-145.18;100.00;46588.13;4935516;28;20031;-72
2023/05/08 10:24:20;;;;;;;60.10;32.27;;;;;;;-145.18;100.00;46595.94;4945917;28;20032;-71
2023/05/08 10:26:55;;;;;;;56.70;30.40;;;;;;;-145.18;100.00;46586.16;4941128;29;20039;-71
2023/05/08 10:29:24;;;;;;;55.20;31.85;;;;;;;-145.18;100.00;46582.25;4942276;28;20038;-71
2023/05/08 10:31:54;;;;;;;52.80;31.87;;;;;;;-145.18;100.00;46580.31;4951100;28;20039;-72
2023/05/08 10:34:21;;;;;;;51.93;30.90;;;;;;;-145.18;100.00;46586.16;4944420;28;20079;-72
2023/05/08 10:36:47;;;;;;;53.70;29.23;;;;;;;-145.18;100.00;46590.06;4940162;29;20039;-72
2023/05/08 10:39:16;;;;;;;52.40;29.77;;;;;;;-145.18;100.00;46597.88;4946391;28;20408;-72
2023/05/08 10:41:42;;;;;;;57.40;31.70;;;;;;;-145.18;100.00;46609.59;4945557;29;20755;-71
2023/05/08 10:44:08;;;;;;;60.03;31.23;;;;;;;-145.18;100.00;46609.59;4945278;28;20187;-72
2023/05/08 10:46:56;;;;;;;52.20;29.37;;;;;;;-145.18;100.00;46617.41;4943402;29;20354;-71
2023/05/08 10:49:34;;;;;;;55.17;29.67;;;;;;;-145.18;100.00;46615.47;4941155;29;20028;-71
2023/05/08 10:52:15;;;;;;;60.67;29.73;;;;;;;-145.18;100.00;46609.59;4943112;28;20078;-71
2023/05/08 10:55:03;;;;;;;62.30;30.70;;;;;;;-145.18;100.00;46582.25;4946435;28;20042;-71
2023/05/08 10:57:29;;;;;;;52.83;29.27;;;;;;;-145.18;100.00;46586.16;4950055;29;20400;-71
2023/05/08 10:59:55;;;;;;;58.07;30.37;;;;;;;-145.18;100.00;46592.03;4938323;28;20063;-71
2023/05/08 11:02:28;;;;;;;53.30;28.23;;;;;;;-145.18;100.00;46597.88;4950246;28;20457;-70